sensor_id;sensor_type;location;lat;lon;timestamp;pressure;altitude;pressure_sealevel;temperature;humidity
9521;BME280;4798;41.574;23.734;2022-08-03T00:00:34;95304.44;;;23.03;85.80
9521;BME280;4798;41.574;23.734;2022-08-03T00:03:03;95306.09;;;23.07;87.76
9521;BME280;4798;41.574;23.734;2022-08-03T00:05:33;95308.03;;;22.36;91.00
9521;BME280;4798;41.574;23.734;2022-08-03T00:08:01;95305.94;;;22.17;91.88
9521;BME280;4798;41.574;23.734;2022-08-03T00:10:32;95311.41;;;22.33;88.69
9521;BME280;4798;41.574;23.734;2022-08-03T00:13:01;95310.88;;;22.55;87.27
9521;BME280;4798;41.574;23.734;2022-08-03T00:15:29;95296.72;;;22.18;92.09
9521;BME280;4798;41.574;23.734;2022-08-03T00:17:57;95310.19;;;22.30;93.68
9521;BME280;4798;41.574;23.734;2022-08-03T00:20:26;95291.97;;;22.27;92.50
9521;BME280;4798;41.574;23.734;2022-08-03T00:22:56;95301.03;;;22.35;92.92
9521;BME280;4798;41.574;23.734;2022-08-03T00:25:24;95307.53;;;22.18;95.11
9521;BME280;4798;41.574;23.734;2022-08-03T00:27:53;95302.56;;;22.48;91.74
9521;BME280;4798;41.574;23.734;2022-08-03T00:30:21;95302.31;;;22.53;90.18
9521;BME280;4798;41.574;23.734;2022-08-03T00:32:57;95299.47;;;22.61;88.96
9521;BME280;4798;41.574;23.734;2022-08-03T00:35:26;95301.16;;;22.66;89.78
9521;BME280;4798;41.574;23.734;2022-08-03T00:38:16;95302.66;;;22.63;89.85
9521;BME280;4798;41.574;23.734;2022-08-03T00:40:44;95302.19;;;22.61;91.99
9521;BME280;4798;41.574;23.734;2022-08-03T00:43:13;95301.97;;;22.66;89.58
9521;BME280;4798;41.574;23.734;2022-08-03T00:45:42;95304.41;;;22.71;89.06
9521;BME280;4798;41.574;23.734;2022-08-03T00:48:11;95307.00;;;22.68;88.04
9521;BME280;4798;41.574;23.734;2022-08-03T00:50:59;95304.88;;;22.61;89.41
9521;BME280;4798;41.574;23.734;2022-08-03T00:53:29;95311.75;;;22.59;89.69
9521;BME280;4798;41.574;23.734;2022-08-03T00:55:58;95315.03;;;22.52;91.41
9521;BME280;4798;41.574;23.734;2022-08-03T00:58:26;95309.31;;;22.54;88.71
9521;BME280;4798;41.574;23.734;2022-08-03T01:00:55;95310.88;;;22.55;89.04
9521;BME280;4798;41.574;23.734;2022-08-03T01:03:23;95303.78;;;22.50;90.20
9521;BME280;4798;41.574;23.734;2022-08-03T01:05:56;95299.69;;;22.41;88.96
9521;BME280;4798;41.574;23.734;2022-08-03T01:08:34;95297.72;;;22.53;92.13
9521;BME280;4798;41.574;23.734;2022-08-03T01:11:11;95284.28;;;22.41;89.46
9521;BME280;4798;41.574;23.734;2022-08-03T01:13:48;95305.38;;;22.51;88.49
9521;BME280;4798;41.574;23.734;2022-08-03T01:16:43;95309.06;;;22.59;88.23
9521;BME280;4798;41.574;23.734;2022-08-03T01:19:40;95309.91;;;22.07;90.38
9521;BME280;4798;41.574;23.734;2022-08-03T01:22:27;95301.66;;;22.28;92.75
9521;BME280;4798;41.574;23.734;2022-08-03T01:25:09;95317.56;;;22.45;88.07
9521;BME280;4798;41.574;23.734;2022-08-03T01:27:50;95310.53;;;22.56;87.94
9521;BME280;4798;41.574;23.734;2022-08-03T01:30:25;95310.31;;;22.49;89.32
9521;BME280;4798;41.574;23.734;2022-08-03T01:32:59;95312.53;;;22.32;93.92
9521;BME280;4798;41.574;23.734;2022-08-03T01:35:33;95085.63;;;20.89;86.88
9521;BME280;4798;41.574;23.734;2022-08-03T01:38:10;95311.56;;;21.60;99.19
9521;BME280;4798;41.574;23.734;2022-08-03T01:40:40;95314.69;;;21.38;100.00
9521;BME280;4798;41.574;23.734;2022-08-03T01:43:15;95307.19;;;21.07;100.00
9521;BME280;4798;41.574;23.734;2022-08-03T01:46:05;95307.50;;;21.18;100.00
9521;BME280;4798;41.574;23.734;2022-08-03T01:48:35;95307.06;;;21.52;100.00
9521;BME280;4798;41.574;23.734;2022-08-03T01:51:05;95305.00;;;21.73;100.00
9521;BME280;4798;41.574;23.734;2022-08-03T01:53:36;95315.69;;;21.82;100.00
9521;BME280;4798;41.574;23.734;2022-08-03T01:56:05;95299.13;;;21.83;100.00
9521;BME280;4798;41.574;23.734;2022-08-03T01:58:35;95290.06;;;21.88;100.00
9521;BME280;4798;41.574;23.734;2022-08-03T02:01:06;95303.00;;;21.46;100.00
9521;BME280;4798;41.574;23.734;2022-08-03T02:03:38;95303.38;;;21.44;100.00
9521;BME280;4798;41.574;23.734;2022-08-03T02:06:28;95306.16;;;21.72;100.00
9521;BME280;4798;41.574;23.734;2022-08-03T02:09:19;95296.34;;;21.80;100.00
9521;BME280;4798;41.574;23.734;2022-08-03T02:11:50;95299.13;;;21.83;100.00
9521;BME280;4798;41.574;23.734;2022-08-03T02:14:20;95294.09;;;21.82;98.17
9521;BME280;4798;41.574;23.734;2022-08-03T02:16:51;95301.41;;;21.81;99.48
9521;BME280;4798;41.574;23.734;2022-08-03T02:19:20;95295.00;;;21.86;99.33
9521;BME280;4798;41.574;23.734;2022-08-03T02:21:50;95285.69;;;21.71;98.84
9521;BME280;4798;41.574;23.734;2022-08-03T02:24:27;95301.41;;;21.69;97.92
9521;BME280;4798;41.574;23.734;2022-08-03T02:26:56;95304.44;;;21.80;96.19
9521;BME280;4798;41.574;23.734;2022-08-03T02:29:28;95306.59;;;21.86;95.27
9521;BME280;4798;41.574;23.734;2022-08-03T02:32:09;95301.88;;;21.59;97.17
9521;BME280;4798;41.574;23.734;2022-08-03T02:34:41;95292.09;;;21.67;95.62
9521;BME280;4798;41.574;23.734;2022-08-03T02:37:12;95300.44;;;21.37;100.00
9521;BME280;4798;41.574;23.734;2022-08-03T02:39:42;95303.34;;;20.63;100.00
9521;BME280;4798;41.574;23.734;2022-08-03T02:42:13;95309.59;;;20.55;100.00
9521;BME280;4798;41.574;23.734;2022-08-03T02:44:47;95310.41;;;20.56;100.00
9521;BME280;4798;41.574;23.734;2022-08-03T02:47:19;95293.59;;;20.71;100.00
9521;BME280;4798;41.574;23.734;2022-08-03T02:49:48;95301.31;;;20.60;100.00
9521;BME280;4798;41.574;23.734;2022-08-03T02:52:20;95305.47;;;20.70;100.00
9521;BME280;4798;41.574;23.734;2022-08-03T02:54:53;95300.66;;;20.31;100.00
9521;BME280;4798;41.574;23.734;2022-08-03T02:57:22;95189.81;;;19.42;100.00
9521;BME280;4798;41.574;23.734;2022-08-03T02:59:53;95314.38;;;20.38;100.00
9521;BME280;4798;41.574;23.734;2022-08-03T03:02:24;95251.53;;;19.80;100.00
9521;BME280;4798;41.574;23.734;2022-08-03T03:04:54;95319.06;;;20.29;100.00
9521;BME280;4798;41.574;23.734;2022-08-03T03:07:44;95315.44;;;20.57;100.00
9521;BME280;4798;41.574;23.734;2022-08-03T03:10:19;95312.06;;;20.93;100.00
9521;BME280;4798;41.574;23.734;2022-08-03T03:12:50;95315.13;;;21.16;100.00
9521;BME280;4798;41.574;23.734;2022-08-03T03:15:19;95294.25;;;20.68;100.00
9521;BME280;4798;41.574;23.734;2022-08-03T03:17:50;95321.34;;;20.39;100.00
9521;BME280;4798;41.574;23.734;2022-08-03T03:20:21;95318.03;;;20.54;100.00
9521;BME280;4798;41.574;23.734;2022-08-03T03:22:55;95320.69;;;20.86;100.00
9521;BME280;4798;41.574;23.734;2022-08-03T03:25:26;95314.53;;;20.98;100.00
9521;BME280;4798;41.574;23.734;2022-08-03T03:27:55;95316.03;;;21.08;100.00
9521;BME280;4798;41.574;23.734;2022-08-03T03:30:24;95316.03;;;21.08;100.00
9521;BME280;4798;41.574;23.734;2022-08-03T03:32:54;95310.19;;;21.18;100.00
9521;BME280;4798;41.574;23.734;2022-08-03T03:35:22;95321.44;;;21.32;100.00
9521;BME280;4798;41.574;23.734;2022-08-03T03:37:51;95324.50;;;21.42;100.00
9521;BME280;4798;41.574;23.734;2022-08-03T03:40:20;95314.38;;;21.51;100.00
9521;BME280;4798;41.574;23.734;2022-08-03T03:42:49;95319.75;;;21.64;100.00
9521;BME280;4798;41.574;23.734;2022-08-03T03:45:18;95325.25;;;21.67;100.00
9521;BME280;4798;41.574;23.734;2022-08-03T03:47:48;95329.06;;;21.66;100.00
9521;BME280;4798;41.574;23.734;2022-08-03T03:50:18;95335.38;;;21.70;100.00
9521;BME280;4798;41.574;23.734;2022-08-03T03:52:47;95335.91;;;21.76;100.00
9521;BME280;4798;41.574;23.734;2022-08-03T03:55:17;95335.03;;;21.60;100.00
9521;BME280;4798;41.574;23.734;2022-08-03T03:57:45;95353.22;;;21.50;100.00
9521;BME280;4798;41.574;23.734;2022-08-03T04:00:15;95342.09;;;21.76;100.00
9521;BME280;4798;41.574;23.734;2022-08-03T04:02:44;95304.72;;;21.26;100.00
9521;BME280;4798;41.574;23.734;2022-08-03T04:05:13;95352.81;;;20.92;100.00
9521;BME280;4798;41.574;23.734;2022-08-03T04:08:05;95349.88;;;21.41;100.00
9521;BME280;4798;41.574;23.734;2022-08-03T04:11:01;95353.03;;;21.68;100.00
9521;BME280;4798;41.574;23.734;2022-08-03T04:13:34;95358.66;;;21.87;100.00
9521;BME280;4798;41.574;23.734;2022-08-03T04:16:04;95354.69;;;22.08;100.00
9521;BME280;4798;41.574;23.734;2022-08-03T04:18:35;95347.34;;;22.21;100.00
9521;BME280;4798;41.574;23.734;2022-08-03T04:21:08;95355.53;;;22.25;100.00
9521;BME280;4798;41.574;23.734;2022-08-03T04:23:43;95346.41;;;22.29;100.00
9521;BME280;4798;41.574;23.734;2022-08-03T04:26:15;95344.38;;;22.38;100.00
9521;BME280;4798;41.574;23.734;2022-08-03T04:28:47;95331.06;;;22.45;100.00
9521;BME280;4798;41.574;23.734;2022-08-03T04:31:19;95349.59;;;22.59;100.00
9521;BME280;4798;41.574;23.734;2022-08-03T04:33:50;95353.03;;;22.71;100.00
9521;BME280;4798;41.574;23.734;2022-08-03T04:36:21;95358.03;;;22.85;100.00
9521;BME280;4798;41.574;23.734;2022-08-03T04:38:56;95361.44;;;22.98;100.00
9521;BME280;4798;41.574;23.734;2022-08-03T04:41:27;95259.66;;;22.31;97.09
9521;BME280;4798;41.574;23.734;2022-08-03T04:43:58;95357.66;;;22.71;99.75
9521;BME280;4798;41.574;23.734;2022-08-03T04:46:29;95351.81;;;22.29;100.00
9521;BME280;4798;41.574;23.734;2022-08-03T04:49:00;95354.09;;;22.83;100.00
9521;BME280;4798;41.574;23.734;2022-08-03T04:51:29;95347.31;;;22.89;99.46
9521;BME280;4798;41.574;23.734;2022-08-03T04:54:02;95349.25;;;23.04;96.66
9521;BME280;4798;41.574;23.734;2022-08-03T04:56:30;95334.75;;;22.53;98.57
9521;BME280;4798;41.574;23.734;2022-08-03T04:59:00;95349.09;;;22.97;100.00
9521;BME280;4798;41.574;23.734;2022-08-03T05:01:29;95351.31;;;22.39;94.32
9521;BME280;4798;41.574;23.734;2022-08-03T05:03:57;95355.41;;;21.93;96.88
9521;BME280;4798;41.574;23.734;2022-08-03T05:06:26;95354.13;;;22.03;97.88
9521;BME280;4798;41.574;23.734;2022-08-03T05:08:54;95353.00;;;22.16;100.00
9521;BME280;4798;41.574;23.734;2022-08-03T05:11:24;95353.00;;;21.80;100.00
9521;BME280;4798;41.574;23.734;2022-08-03T05:13:53;95358.19;;;21.97;99.50
9521;BME280;4798;41.574;23.734;2022-08-03T05:16:21;95334.56;;;21.82;95.61
9521;BME280;4798;41.574;23.734;2022-08-03T05:18:51;95346.44;;;22.17;93.45
9521;BME280;4798;41.574;23.734;2022-08-03T05:21:20;95352.03;;;22.36;95.91
9521;BME280;4798;41.574;23.734;2022-08-03T05:23:48;95352.34;;;22.35;91.93
9521;BME280;4798;41.574;23.734;2022-08-03T05:26:16;95348.38;;;23.00;95.06
9521;BME280;4798;41.574;23.734;2022-08-03T05:28:46;95347.56;;;23.58;88.00
9521;BME280;4798;41.574;23.734;2022-08-03T05:31:17;95350.25;;;23.27;90.07
9521;BME280;4798;41.574;23.734;2022-08-03T05:33:46;95356.28;;;23.52;87.99
9521;BME280;4798;41.574;23.734;2022-08-03T05:36:15;95345.19;;;22.66;84.86
9521;BME280;4798;41.574;23.734;2022-08-03T05:38:43;95349.09;;;22.41;88.08
9521;BME280;4798;41.574;23.734;2022-08-03T05:41:12;95352.56;;;22.97;87.95
9521;BME280;4798;41.574;23.734;2022-08-03T05:43:50;95359.06;;;23.71;91.07
9521;BME280;4798;41.574;23.734;2022-08-03T05:46:20;95365.34;;;23.90;82.23
9521;BME280;4798;41.574;23.734;2022-08-03T05:48:49;95369.97;;;23.27;85.04
9521;BME280;4798;41.574;23.734;2022-08-03T05:51:18;95363.81;;;23.43;87.89
9521;BME280;4798;41.574;23.734;2022-08-03T05:53:46;95372.03;;;24.12;83.04
9521;BME280;4798;41.574;23.734;2022-08-03T05:56:15;95366.75;;;24.19;84.64
9521;BME280;4798;41.574;23.734;2022-08-03T05:58:44;95373.44;;;24.41;85.58
9521;BME280;4798;41.574;23.734;2022-08-03T06:01:15;95371.94;;;24.43;80.91
9521;BME280;4798;41.574;23.734;2022-08-03T06:03:44;95364.97;;;24.81;77.25
9521;BME280;4798;41.574;23.734;2022-08-03T06:06:13;95368.59;;;24.69;74.33
9521;BME280;4798;41.574;23.734;2022-08-03T06:08:42;95368.22;;;24.90;74.69
9521;BME280;4798;41.574;23.734;2022-08-03T06:11:11;95361.19;;;25.27;77.07
9521;BME280;4798;41.574;23.734;2022-08-03T06:13:40;95362.91;;;25.84;69.49
9521;BME280;4798;41.574;23.734;2022-08-03T06:16:08;95358.09;;;25.74;65.88
9521;BME280;4798;41.574;23.734;2022-08-03T06:18:38;95351.34;;;26.13;68.66
9521;BME280;4798;41.574;23.734;2022-08-03T06:21:07;95358.56;;;26.62;62.09
9521;BME280;4798;41.574;23.734;2022-08-03T06:23:43;95303.69;;;26.19;62.99
9521;BME280;4798;41.574;23.734;2022-08-03T06:26:23;95339.59;;;26.09;63.56
9521;BME280;4798;41.574;23.734;2022-08-03T06:28:51;95339.72;;;26.16;63.15
9521;BME280;4798;41.574;23.734;2022-08-03T06:31:22;95358.03;;;26.79;63.72
9521;BME280;4798;41.574;23.734;2022-08-03T06:34:01;95350.66;;;27.16;57.34
9521;BME280;4798;41.574;23.734;2022-08-03T06:36:50;95344.38;;;26.75;58.68
9521;BME280;4798;41.574;23.734;2022-08-03T06:39:27;95346.06;;;27.24;57.97
9521;BME280;4798;41.574;23.734;2022-08-03T06:41:56;95347.16;;;27.52;54.83
9521;BME280;4798;41.574;23.734;2022-08-03T06:44:25;95344.56;;;27.73;54.26
9521;BME280;4798;41.574;23.734;2022-08-03T06:46:53;95342.91;;;28.09;55.45
9521;BME280;4798;41.574;23.734;2022-08-03T06:49:23;95349.75;;;27.89;53.80
9521;BME280;4798;41.574;23.734;2022-08-03T06:51:51;95352.09;;;27.03;66.79
9521;BME280;4798;41.574;23.734;2022-08-03T06:54:35;95350.69;;;26.83;74.04
9521;BME280;4798;41.574;23.734;2022-08-03T06:57:04;95341.25;;;26.73;77.47
9521;BME280;4798;41.574;23.734;2022-08-03T06:59:34;95360.91;;;27.30;72.92
9521;BME280;4798;41.574;23.734;2022-08-03T07:02:22;95345.00;;;27.32;72.75
9521;BME280;4798;41.574;23.734;2022-08-03T07:04:55;95355.72;;;27.58;67.97
9521;BME280;4798;41.574;23.734;2022-08-03T07:07:24;95293.53;;;27.16;69.55
9521;BME280;4798;41.574;23.734;2022-08-03T07:09:53;95359.25;;;26.85;73.01
9521;BME280;4798;41.574;23.734;2022-08-03T07:12:25;95354.75;;;26.99;65.54
9521;BME280;4798;41.574;23.734;2022-08-03T07:14:55;95342.38;;;27.90;65.74
9521;BME280;4798;41.574;23.734;2022-08-03T07:17:29;95353.97;;;28.38;65.98
9521;BME280;4798;41.574;23.734;2022-08-03T07:20:00;95342.84;;;28.64;58.40
9521;BME280;4798;41.574;23.734;2022-08-03T07:22:29;95352.81;;;28.39;59.80
9521;BME280;4798;41.574;23.734;2022-08-03T07:24:58;95351.03;;;26.78;64.79
9521;BME280;4798;41.574;23.734;2022-08-03T07:27:26;95346.31;;;27.45;68.59
9521;BME280;4798;41.574;23.734;2022-08-03T07:29:57;95349.72;;;27.86;64.13
9521;BME280;4798;41.574;23.734;2022-08-03T07:32:26;95307.50;;;27.15;62.54
9521;BME280;4798;41.574;23.734;2022-08-03T07:34:59;95349.19;;;27.62;64.13
9521;BME280;4798;41.574;23.734;2022-08-03T07:37:28;95352.63;;;28.07;66.86
9521;BME280;4798;41.574;23.734;2022-08-03T07:39:57;95350.63;;;27.13;69.61
9521;BME280;4798;41.574;23.734;2022-08-03T07:42:26;95346.06;;;26.87;69.77
9521;BME280;4798;41.574;23.734;2022-08-03T07:44:55;95352.72;;;27.26;66.03
9521;BME280;4798;41.574;23.734;2022-08-03T07:47:26;95346.19;;;27.38;65.66
9521;BME280;4798;41.574;23.734;2022-08-03T07:50:03;95345.69;;;27.25;60.71
9521;BME280;4798;41.574;23.734;2022-08-03T07:52:34;95349.16;;;28.10;60.25
9521;BME280;4798;41.574;23.734;2022-08-03T07:55:16;95344.03;;;28.01;55.52
9521;BME280;4798;41.574;23.734;2022-08-03T07:57:44;95344.97;;;27.72;58.20
9521;BME280;4798;41.574;23.734;2022-08-03T08:00:15;95342.88;;;28.06;59.18
9521;BME280;4798;41.574;23.734;2022-08-03T08:02:44;95354.19;;;27.60;59.00
9521;BME280;4798;41.574;23.734;2022-08-03T08:05:14;95348.19;;;27.88;59.42
9521;BME280;4798;41.574;23.734;2022-08-03T08:07:42;95348.19;;;27.88;62.89
9521;BME280;4798;41.574;23.734;2022-08-03T08:10:17;95336.91;;;28.51;58.47
9521;BME280;4798;41.574;23.734;2022-08-03T08:12:46;95341.69;;;28.72;55.71
9521;BME280;4798;41.574;23.734;2022-08-03T08:15:15;95335.56;;;29.07;52.33
9521;BME280;4798;41.574;23.734;2022-08-03T08:17:45;95331.28;;;29.16;51.96
9521;BME280;4798;41.574;23.734;2022-08-03T08:20:17;95330.19;;;29.91;47.45
9521;BME280;4798;41.574;23.734;2022-08-03T08:22:55;95330.63;;;31.05;48.78
9521;BME280;4798;41.574;23.734;2022-08-03T08:25:27;95335.19;;;31.29;40.81
9521;BME280;4798;41.574;23.734;2022-08-03T08:27:57;95334.03;;;31.23;40.40
9521;BME280;4798;41.574;23.734;2022-08-03T08:30:48;95325.38;;;31.86;44.42
9521;BME280;4798;41.574;23.734;2022-08-03T08:33:16;95320.94;;;32.74;37.76
9521;BME280;4798;41.574;23.734;2022-08-03T08:35:51;95316.94;;;32.48;36.89
9521;BME280;4798;41.574;23.734;2022-08-03T08:38:20;95311.44;;;33.12;37.08
9521;BME280;4798;41.574;23.734;2022-08-03T08:40:50;95307.41;;;33.70;36.23
9521;BME280;4798;41.574;23.734;2022-08-03T08:43:18;95305.22;;;34.08;37.66
9521;BME280;4798;41.574;23.734;2022-08-03T08:45:48;95297.50;;;34.00;36.38
9521;BME280;4798;41.574;23.734;2022-08-03T08:48:20;95307.72;;;33.99;34.89
9521;BME280;4798;41.574;23.734;2022-08-03T08:50:53;95300.34;;;34.59;34.36
9521;BME280;4798;41.574;23.734;2022-08-03T08:53:25;95296.16;;;33.65;34.32
9521;BME280;4798;41.574;23.734;2022-08-03T08:55:58;95293.41;;;32.47;36.27
9521;BME280;4798;41.574;23.734;2022-08-03T08:58:37;95299.84;;;31.93;37.51
9521;BME280;4798;41.574;23.734;2022-08-03T09:01:09;95284.94;;;32.69;38.49
9521;BME280;4798;41.574;23.734;2022-08-03T09:03:37;95294.22;;;33.62;36.92
9521;BME280;4798;41.574;23.734;2022-08-03T09:06:07;95281.41;;;34.41;34.99
9521;BME280;4798;41.574;23.734;2022-08-03T09:08:36;95286.06;;;33.01;34.93
9521;BME280;4798;41.574;23.734;2022-08-03T09:11:04;95287.69;;;33.25;35.68
9521;BME280;4798;41.574;23.734;2022-08-03T09:13:34;95275.47;;;33.80;35.99
9521;BME280;4798;41.574;23.734;2022-08-03T09:16:12;95283.72;;;33.80;35.30
9521;BME280;4798;41.574;23.734;2022-08-03T09:18:42;95278.94;;;34.66;34.51
9521;BME280;4798;41.574;23.734;2022-08-03T09:21:18;95282.50;;;35.02;33.03
9521;BME280;4798;41.574;23.734;2022-08-03T09:24:04;95279.44;;;34.61;33.09
9521;BME280;4798;41.574;23.734;2022-08-03T09:26:51;95268.03;;;34.98;31.55
9521;BME280;4798;41.574;23.734;2022-08-03T09:29:20;95276.25;;;34.82;30.12
9521;BME280;4798;41.574;23.734;2022-08-03T09:31:59;95274.50;;;34.53;30.41
9521;BME280;4798;41.574;23.734;2022-08-03T09:34:28;95273.41;;;35.05;30.01
9521;BME280;4798;41.574;23.734;2022-08-03T09:36:58;95265.69;;;35.65;29.16
9521;BME280;4798;41.574;23.734;2022-08-03T09:39:27;95264.44;;;36.43;29.98
9521;BME280;4798;41.574;23.734;2022-08-03T09:42:08;95272.13;;;35.42;30.06
9521;BME280;4798;41.574;23.734;2022-08-03T09:44:42;95231.28;;;34.89;31.72
9521;BME280;4798;41.574;23.734;2022-08-03T09:47:11;95268.50;;;35.13;30.46
9521;BME280;4798;41.574;23.734;2022-08-03T09:49:41;95264.34;;;33.87;30.98
9521;BME280;4798;41.574;23.734;2022-08-03T09:52:16;95247.81;;;34.30;29.66
9521;BME280;4798;41.574;23.734;2022-08-03T09:54:59;95243.31;;;34.59;28.38
9521;BME280;4798;41.574;23.734;2022-08-03T09:57:28;95246.56;;;35.74;27.80
9521;BME280;4798;41.574;23.734;2022-08-03T10:00:10;95242.44;;;36.40;29.00
9521;BME280;4798;41.574;23.734;2022-08-03T10:02:39;95244.00;;;36.41;27.73
9521;BME280;4798;41.574;23.734;2022-08-03T10:05:09;95241.66;;;35.49;28.38
9521;BME280;4798;41.574;23.734;2022-08-03T10:07:48;95159.03;;;34.81;27.12
9521;BME280;4798;41.574;23.734;2022-08-03T10:10:17;95239.91;;;36.04;27.21
9521;BME280;4798;41.574;23.734;2022-08-03T10:12:58;95231.19;;;36.88;25.78
9521;BME280;4798;41.574;23.734;2022-08-03T10:15:27;95159.13;;;35.42;26.84
9521;BME280;4798;41.574;23.734;2022-08-03T10:18:16;95228.13;;;34.87;27.15
9521;BME280;4798;41.574;23.734;2022-08-03T10:20:48;95230.69;;;35.30;28.33
9521;BME280;4798;41.574;23.734;2022-08-03T10:23:20;95236.56;;;35.16;27.88
9521;BME280;4798;41.574;23.734;2022-08-03T10:25:56;95226.56;;;35.38;27.61
9521;BME280;4798;41.574;23.734;2022-08-03T10:28:27;95220.84;;;35.93;26.17
9521;BME280;4798;41.574;23.734;2022-08-03T10:31:01;95228.03;;;35.42;26.70
9521;BME280;4798;41.574;23.734;2022-08-03T10:33:36;95231.34;;;34.85;25.90
9521;BME280;4798;41.574;23.734;2022-08-03T10:36:18;95230.31;;;33.31;28.72
9521;BME280;4798;41.574;23.734;2022-08-03T10:38:51;95249.53;;;33.31;31.63
9521;BME280;4798;41.574;23.734;2022-08-03T10:41:22;95219.03;;;33.72;30.36
9521;BME280;4798;41.574;23.734;2022-08-03T10:44:03;95239.41;;;33.74;30.90
9521;BME280;4798;41.574;23.734;2022-08-03T10:46:32;95233.28;;;33.40;31.37
9521;BME280;4798;41.574;23.734;2022-08-03T10:49:11;95237.81;;;33.00;31.29
9521;BME280;4798;41.574;23.734;2022-08-03T10:51:40;95236.88;;;33.14;32.83
9521;BME280;4798;41.574;23.734;2022-08-03T10:54:38;95240.94;;;32.76;33.41
9521;BME280;4798;41.574;23.734;2022-08-03T10:57:46;95241.94;;;32.25;40.18
9521;BME280;4798;41.574;23.734;2022-08-03T11:00:19;95210.28;;;32.20;42.98
9521;BME280;4798;41.574;23.734;2022-08-03T11:03:06;95238.09;;;31.78;41.11
9521;BME280;4798;41.574;23.734;2022-08-03T11:05:37;95238.44;;;31.83;40.38
9521;BME280;4798;41.574;23.734;2022-08-03T11:08:26;95228.00;;;31.71;39.23
9521;BME280;4798;41.574;23.734;2022-08-03T11:10:59;95222.63;;;32.01;34.07
9521;BME280;4798;41.574;23.734;2022-08-03T11:13:29;95219.56;;;31.92;31.49
9521;BME280;4798;41.574;23.734;2022-08-03T11:16:02;95210.41;;;32.40;34.15
9521;BME280;4798;41.574;23.734;2022-08-03T11:18:55;95182.28;;;33.16;31.21
9521;BME280;4798;41.574;23.734;2022-08-03T11:21:51;95198.41;;;33.60;30.41
9521;BME280;4798;41.574;23.734;2022-08-03T11:27:27;95199.38;;;33.93;28.64
9521;BME280;4798;41.574;23.734;2022-08-03T11:29:59;95205.97;;;34.19;29.98
9521;BME280;4798;41.574;23.734;2022-08-03T11:32:53;95195.06;;;34.51;29.75
9521;BME280;4798;41.574;23.734;2022-08-03T11:35:23;95190.69;;;34.89;28.89
9521;BME280;4798;41.574;23.734;2022-08-03T11:38:11;95151.75;;;35.39;27.40
9521;BME280;4798;41.574;23.734;2022-08-03T11:40:41;95188.88;;;34.47;27.15
9521;BME280;4798;41.574;23.734;2022-08-03T11:43:45;95194.88;;;34.62;28.10
9521;BME280;4798;41.574;23.734;2022-08-03T11:46:14;95193.28;;;34.80;27.68
9521;BME280;4798;41.574;23.734;2022-08-03T11:49:03;95183.53;;;34.40;30.67
9521;BME280;4798;41.574;23.734;2022-08-03T11:51:36;95176.38;;;34.07;29.75
9521;BME280;4798;41.574;23.734;2022-08-03T11:54:06;95130.16;;;35.22;28.61
9521;BME280;4798;41.574;23.734;2022-08-03T11:56:44;95176.81;;;36.18;25.37
9521;BME280;4798;41.574;23.734;2022-08-03T11:59:15;95107.31;;;36.74;24.57
9521;BME280;4798;41.574;23.734;2022-08-03T12:01:49;95169.13;;;37.65;24.17
9521;BME280;4798;41.574;23.734;2022-08-03T12:04:17;95167.19;;;38.30;24.65
9521;BME280;4798;41.574;23.734;2022-08-03T12:06:59;95162.53;;;38.49;23.62
9521;BME280;4798;41.574;23.734;2022-08-03T12:09:27;95158.06;;;38.51;23.78
9521;BME280;4798;41.574;23.734;2022-08-03T12:11:56;95166.22;;;37.68;23.08
9521;BME280;4798;41.574;23.734;2022-08-03T12:14:28;95167.41;;;36.82;24.96
9521;BME280;4798;41.574;23.734;2022-08-03T12:17:17;95170.41;;;36.21;26.43
9521;BME280;4798;41.574;23.734;2022-08-03T12:19:46;95159.56;;;35.86;25.66
9521;BME280;4798;41.574;23.734;2022-08-03T12:22:14;95166.19;;;34.95;29.15
9521;BME280;4798;41.574;23.734;2022-08-03T12:24:44;95162.75;;;34.19;28.10
9521;BME280;4798;41.574;23.734;2022-08-03T12:27:22;95163.09;;;34.21;28.27
9521;BME280;4798;41.574;23.734;2022-08-03T12:29:53;95158.28;;;34.81;29.04
9521;BME280;4798;41.574;23.734;2022-08-03T12:32:24;95162.41;;;35.53;27.94
9521;BME280;4798;41.574;23.734;2022-08-03T12:34:54;95160.75;;;35.72;29.04
9521;BME280;4798;41.574;23.734;2022-08-03T12:37:46;95177.44;;;34.68;30.24
9521;BME280;4798;41.574;23.734;2022-08-03T12:40:23;95115.75;;;33.71;33.05
9521;BME280;4798;41.574;23.734;2022-08-03T12:42:54;95168.47;;;33.66;32.84
9521;BME280;4798;41.574;23.734;2022-08-03T12:45:25;95164.25;;;33.61;32.79
9521;BME280;4798;41.574;23.734;2022-08-03T12:47:55;95174.28;;;33.48;32.59
9521;BME280;4798;41.574;23.734;2022-08-03T12:50:26;95171.44;;;33.09;33.76
9521;BME280;4798;41.574;23.734;2022-08-03T12:52:55;95181.06;;;32.94;33.70
9521;BME280;4798;41.574;23.734;2022-08-03T12:55:24;95182.41;;;32.82;34.54
9521;BME280;4798;41.574;23.734;2022-08-03T12:58:28;95183.56;;;32.24;35.25
9521;BME280;4798;41.574;23.734;2022-08-03T13:04:56;95189.03;;;32.28;35.07
9521;BME280;4798;41.574;23.734;2022-08-03T13:07:25;95187.78;;;31.98;35.15
9521;BME280;4798;41.574;23.734;2022-08-03T13:09:55;95188.78;;;31.78;35.08
9521;BME280;4798;41.574;23.734;2022-08-03T13:12:25;95196.38;;;32.00;35.62
9521;BME280;4798;41.574;23.734;2022-08-03T13:14:55;95193.84;;;31.38;36.19
9521;BME280;4798;41.574;23.734;2022-08-03T13:17:24;95209.03;;;31.50;37.36
9521;BME280;4798;41.574;23.734;2022-08-03T13:19:53;95214.84;;;31.08;38.40
9521;BME280;4798;41.574;23.734;2022-08-03T13:22:25;95212.81;;;31.19;38.82
9521;BME280;4798;41.574;23.734;2022-08-03T13:24:56;95232.84;;;31.05;39.88
9521;BME280;4798;41.574;23.734;2022-08-03T13:27:24;95241.16;;;30.84;42.04
9521;BME280;4798;41.574;23.734;2022-08-03T13:30:14;95223.63;;;29.84;43.94
9521;BME280;4798;41.574;23.734;2022-08-03T13:32:56;95220.13;;;29.66;46.93
9521;BME280;4798;41.574;23.734;2022-08-03T13:35:26;95255.25;;;29.71;47.13
9521;BME280;4798;41.574;23.734;2022-08-03T13:37:56;95247.81;;;29.93;47.31
9521;BME280;4798;41.574;23.734;2022-08-03T13:40:24;95256.06;;;29.26;51.99
9521;BME280;4798;41.574;23.734;2022-08-03T13:42:56;95239.28;;;29.52;51.67
9521;BME280;4798;41.574;23.734;2022-08-03T13:45:24;95238.06;;;29.18;54.25